createdAt,value
2017-12-23T00:01:37.944Z,99940.70
2017-12-23T00:04:05.479Z,99934.05
2017-12-23T00:06:33.023Z,99935.55
2017-12-23T00:09:00.574Z,99934.31
2017-12-23T00:11:28.112Z,99935.91
2017-12-23T00:13:55.650Z,99936.90
2017-12-23T00:16:23.214Z,99938.00
2017-12-23T00:18:50.724Z,99944.19
2017-12-23T00:21:18.242Z,99939.28
2017-12-23T00:23:45.774Z,99939.76
2017-12-23T00:26:13.297Z,99944.59
2017-12-23T00:28:40.824Z,99944.11
2017-12-23T00:31:08.360Z,99938.73
2017-12-23T00:33:35.881Z,99949.08
2017-12-23T00:36:03.441Z,99942.91
2017-12-23T00:38:30.976Z,99948.91
2017-12-23T00:40:58.515Z,99942.19
2017-12-23T00:43:26.046Z,99942.05
2017-12-23T00:45:53.657Z,99946.46
2017-12-23T00:48:21.193Z,99946.36
2017-12-23T00:50:48.726Z,99952.56
2017-12-23T00:53:16.270Z,99949.88
2017-12-23T00:55:43.803Z,99950.88
2017-12-23T00:58:11.328Z,99948.59
2017-12-23T01:00:38.858Z,99944.44
2017-12-23T01:03:06.402Z,99946.43
2017-12-23T01:05:34.148Z,99946.78
2017-12-23T01:08:01.683Z,99945.11
2017-12-23T01:10:29.217Z,99948.18
2017-12-23T01:12:56.750Z,99945.00
2017-12-23T01:15:24.308Z,99943.23
2017-12-23T01:17:51.851Z,99950.16
2017-12-23T01:20:19.385Z,99948.40
2017-12-23T01:22:46.951Z,99936.34
2017-12-23T01:25:14.484Z,99938.86
2017-12-23T01:27:42.017Z,99937.19
2017-12-23T01:30:09.558Z,99934.58
2017-12-23T01:32:37.144Z,99933.21
2017-12-23T01:35:04.765Z,99927.31
2017-12-23T01:37:32.294Z,99919.28
2017-12-23T01:39:59.882Z,99919.41
2017-12-23T01:42:27.415Z,99924.27
2017-12-23T01:44:54.947Z,99912.97
2017-12-23T01:47:23.366Z,99916.34
2017-12-23T01:49:50.902Z,99923.66
2017-12-23T01:52:18.430Z,99915.28
2017-12-23T01:54:45.960Z,99917.90
2017-12-23T01:57:13.491Z,99917.63
2017-12-23T01:59:41.032Z,99917.09
2017-12-23T02:02:08.570Z,99911.89
2017-12-23T02:04:36.106Z,99901.62
2017-12-23T02:07:03.637Z,99904.97
2017-12-23T02:09:31.166Z,99887.63
2017-12-23T02:11:58.704Z,99888.06
2017-12-23T02:14:26.232Z,99879.31
2017-12-23T02:16:53.762Z,99875.17
2017-12-23T02:19:21.288Z,99875.28
2017-12-23T02:21:48.844Z,99880.64
2017-12-23T02:24:16.382Z,99882.61
2017-12-23T02:26:43.906Z,99883.99
2017-12-23T02:29:11.435Z,99878.13
2017-12-23T02:31:38.962Z,99885.64
2017-12-23T02:34:06.506Z,99885.88
2017-12-23T02:36:34.063Z,99887.39
2017-12-23T02:39:01.579Z,99890.06
2017-12-23T02:41:29.134Z,99886.68
2017-12-23T02:43:56.696Z,99887.52
2017-12-23T02:46:24.234Z,99883.34
2017-12-23T02:48:51.768Z,99885.62
2017-12-23T02:51:19.299Z,99879.20
2017-12-23T02:53:46.834Z,99878.89
2017-12-23T02:56:14.366Z,99880.14
2017-12-23T02:58:41.895Z,99889.38
2017-12-23T03:01:09.433Z,99892.52
2017-12-23T03:03:36.929Z,99895.03
2017-12-23T03:06:04.482Z,99895.80
2017-12-23T03:08:32.008Z,99892.52
2017-12-23T03:10:59.537Z,99896.52
2017-12-23T03:13:27.062Z,99898.03
2017-12-23T03:15:54.598Z,99895.62
2017-12-23T03:18:22.152Z,99888.63
2017-12-23T03:20:49.693Z,99885.80
2017-12-23T03:23:17.220Z,99892.10
2017-12-23T03:25:44.750Z,99882.78
2017-12-23T03:28:12.283Z,99880.59
2017-12-23T03:30:39.831Z,99885.23
2017-12-23T03:33:07.419Z,99877.41
2017-12-23T03:35:34.939Z,99874.38
2017-12-23T03:38:02.484Z,99879.80
2017-12-23T03:40:30.002Z,99880.80
2017-12-23T03:42:57.546Z,99880.89
2017-12-23T03:45:25.078Z,99883.72
2017-12-23T03:47:52.602Z,99879.01
2017-12-23T03:50:20.156Z,99878.84
2017-12-23T03:52:47.684Z,99871.41
2017-12-23T03:55:16.164Z,99868.14
2017-12-23T03:57:43.704Z,99872.17
2017-12-23T04:00:11.227Z,99866.73
2017-12-23T04:02:38.757Z,99867.06
2017-12-23T04:05:06.266Z,99869.58
2017-12-23T04:07:33.804Z,99866.14
2017-12-23T04:10:01.328Z,99854.04
2017-12-23T04:12:28.884Z,99859.75
2017-12-23T04:14:56.412Z,99850.52
2017-12-23T04:17:23.938Z,99857.08
2017-12-23T04:19:51.459Z,99858.73
2017-12-23T04:22:18.993Z,99845.31
2017-12-23T04:24:46.523Z,99839.27
2017-12-23T04:27:14.049Z,99842.78
2017-12-23T04:29:41.562Z,99839.17
2017-12-23T04:32:09.102Z,99832.25
2017-12-23T04:34:36.642Z,99829.59
2017-12-23T04:37:04.179Z,99833.01
2017-12-23T04:39:31.709Z,99836.66
2017-12-23T04:41:59.268Z,99832.01
2017-12-23T04:44:26.793Z,99834.23
2017-12-23T04:46:54.306Z,99830.34
2017-12-23T04:49:21.824Z,99835.74
2017-12-23T04:51:49.387Z,99836.66
2017-12-23T04:54:16.927Z,99829.17
2017-12-23T04:56:44.455Z,99829.39
2017-12-23T04:59:11.969Z,99832.12
2017-12-23T05:01:39.490Z,99834.67
2017-12-23T05:04:07.054Z,99844.14
2017-12-23T05:06:34.564Z,99853.02
2017-12-23T05:09:02.078Z,99853.27
2017-12-23T05:11:29.604Z,99856.16
2017-12-23T05:13:57.148Z,99852.72
2017-12-23T05:16:24.675Z,99850.57
2017-12-23T05:18:52.222Z,99851.45
2017-12-23T05:21:19.747Z,99859.55
2017-12-23T05:23:47.290Z,99859.38
2017-12-23T05:26:15.314Z,99862.23
2017-12-23T05:28:42.860Z,99871.28
2017-12-23T05:31:10.395Z,99874.33
2017-12-23T05:33:37.927Z,99870.14
2017-12-23T05:36:05.448Z,99877.20
2017-12-23T05:38:32.978Z,99884.13
2017-12-23T05:41:00.533Z,99883.58
2017-12-23T05:43:28.042Z,99883.00
2017-12-23T05:45:55.563Z,99875.53
2017-12-23T05:48:23.256Z,99873.03
2017-12-23T05:50:50.788Z,99874.38
2017-12-23T05:53:18.332Z,99873.28
2017-12-23T05:55:45.942Z,99869.91
2017-12-23T05:58:13.468Z,99868.05
2017-12-23T06:00:40.977Z,99867.56
2017-12-23T06:03:08.530Z,99873.53
2017-12-23T06:05:36.062Z,99877.79
2017-12-23T06:08:03.610Z,99868.20
2017-12-23T06:10:31.143Z,99855.82
2017-12-23T06:12:58.730Z,99857.67
2017-12-23T06:15:26.286Z,99857.54
2017-12-23T06:17:53.832Z,99862.61
2017-12-23T06:20:21.388Z,99851.78
2017-12-23T06:22:48.934Z,99854.14
2017-12-23T06:25:16.444Z,99849.99
2017-12-23T06:27:43.984Z,99849.16
2017-12-23T06:30:11.549Z,99855.45
2017-12-23T06:32:39.066Z,99849.16
2017-12-23T06:35:06.576Z,99848.61
2017-12-23T06:37:34.117Z,99842.39
2017-12-23T06:40:01.650Z,99850.84
2017-12-23T06:42:29.186Z,99848.91
2017-12-23T06:44:56.807Z,99845.48
2017-12-23T06:47:24.347Z,99843.73
2017-12-23T06:49:51.875Z,99843.34
2017-12-23T06:52:19.425Z,99845.48
2017-12-23T06:54:46.967Z,99842.34
2017-12-23T06:57:14.527Z,99849.47
2017-12-23T06:59:42.055Z,99849.50
2017-12-23T07:02:09.582Z,99846.91
2017-12-23T07:04:37.113Z,99850.98
2017-12-23T07:07:04.627Z,99847.67
2017-12-23T07:09:32.171Z,99851.94
2017-12-23T07:11:59.699Z,99852.84
2017-12-23T07:14:27.224Z,99855.17
2017-12-23T07:16:54.769Z,99858.89
2017-12-23T07:19:22.297Z,99855.88
2017-12-23T07:21:49.828Z,99849.30
2017-12-23T07:24:17.358Z,99848.36
2017-12-23T07:26:45.013Z,99847.08
2017-12-23T07:29:12.547Z,99850.98
2017-12-23T07:31:40.117Z,99859.73
2017-12-23T07:34:07.644Z,99857.05
2017-12-23T07:36:35.183Z,99860.59
2017-12-23T07:39:02.714Z,99869.48
2017-12-23T07:41:30.260Z,99869.78
2017-12-23T07:43:57.772Z,99865.60
2017-12-23T07:46:25.344Z,99871.78
2017-12-23T07:48:52.904Z,99863.27
2017-12-23T07:51:20.461Z,99856.28
2017-12-23T07:53:48.000Z,99870.66
2017-12-23T07:56:15.535Z,99874.59
2017-12-23T07:58:43.084Z,99875.86
2017-12-23T08:01:10.640Z,99874.34
2017-12-23T08:03:38.305Z,99871.76
2017-12-23T08:06:05.837Z,99878.20
2017-12-23T08:08:33.355Z,99871.17
2017-12-23T08:11:00.902Z,99862.00
2017-12-23T08:13:28.436Z,99871.38
2017-12-23T08:15:56.053Z,99876.62
2017-12-23T08:18:23.566Z,99879.48
2017-12-23T08:20:51.096Z,99882.55
2017-12-23T08:23:18.637Z,99886.07
2017-12-23T08:25:46.167Z,99888.24
2017-12-23T08:28:13.692Z,99894.34
2017-12-23T08:30:41.358Z,99887.31
2017-12-23T08:33:08.913Z,99893.69
2017-12-23T08:35:36.462Z,99892.69
2017-12-23T08:38:04.005Z,99890.59
2017-12-23T08:40:31.549Z,99889.06
2017-12-23T08:42:59.103Z,99900.27
2017-12-23T08:45:26.659Z,99898.62
2017-12-23T08:47:54.172Z,99900.72
2017-12-23T08:50:21.688Z,99903.59
2017-12-23T08:52:49.253Z,99899.79
2017-12-23T08:55:16.803Z,99905.43
2017-12-23T08:57:44.359Z,99903.44
2017-12-23T09:00:11.881Z,99907.30
2017-12-23T09:02:39.425Z,99906.05
2017-12-23T09:05:06.968Z,99908.64
2017-12-23T09:07:34.524Z,99903.25
2017-12-23T09:10:02.052Z,99907.78
2017-12-23T09:12:29.583Z,99922.41
2017-12-23T09:14:57.124Z,99919.44
2017-12-23T09:17:24.654Z,99926.16
2017-12-23T09:19:52.211Z,99933.05
2017-12-23T09:22:19.756Z,99935.05
2017-12-23T09:24:47.285Z,99928.30
2017-12-23T09:27:14.817Z,99933.05
2017-12-23T09:29:42.480Z,99933.17
2017-12-23T09:32:10.030Z,99934.72
2017-12-23T09:34:37.597Z,99931.95
2017-12-23T09:37:05.397Z,99932.64
2017-12-23T09:39:33.010Z,99924.73
2017-12-23T09:42:00.552Z,99927.47
2017-12-23T09:44:28.192Z,99927.21
2017-12-23T09:46:55.706Z,99924.80
2017-12-23T09:49:23.241Z,99928.78
2017-12-23T09:51:50.796Z,99927.78
2017-12-23T09:54:18.363Z,99933.21
2017-12-23T09:56:45.892Z,99932.09
2017-12-23T09:59:13.406Z,99930.48
2017-12-23T10:01:40.954Z,99935.70
2017-12-23T10:04:08.783Z,99933.91
2017-12-23T10:06:36.381Z,99926.23
2017-12-23T10:09:03.930Z,99929.28
2017-12-23T10:11:31.499Z,99928.42
2017-12-23T10:13:59.033Z,99938.53
2017-12-23T10:16:26.574Z,99933.91
2017-12-23T10:18:54.118Z,99931.81
2017-12-23T10:21:21.647Z,99930.75
2017-12-23T10:23:49.243Z,99926.23
2017-12-23T10:26:16.772Z,99919.72
2017-12-23T10:28:44.308Z,99917.37
2017-12-23T10:31:11.847Z,99907.90
2017-12-23T10:33:39.372Z,99906.12
2017-12-23T10:36:06.913Z,99896.11
2017-12-23T10:38:34.452Z,99900.63
2017-12-23T10:41:02.002Z,99898.17
2017-12-23T10:43:29.552Z,99905.05
2017-12-23T10:45:57.128Z,99896.30
2017-12-23T10:48:24.683Z,99897.62
2017-12-23T10:50:52.227Z,99888.89
2017-12-23T10:53:19.748Z,99899.41
2017-12-23T10:55:47.297Z,99895.30
2017-12-23T10:58:14.839Z,99890.27
2017-12-23T11:00:42.379Z,99888.51
2017-12-23T11:03:09.979Z,99888.16
2017-12-23T11:05:37.533Z,99892.08
2017-12-23T11:08:05.068Z,99895.56
2017-12-23T11:10:32.605Z,99894.45
2017-12-23T11:13:00.124Z,99887.61
2017-12-23T11:15:27.658Z,99888.97
2017-12-23T11:17:55.177Z,99891.66
2017-12-23T11:20:22.712Z,99888.83
2017-12-23T11:22:50.263Z,99880.09
2017-12-23T11:25:17.793Z,99878.99
2017-12-23T11:27:45.326Z,99870.30
2017-12-23T11:30:12.852Z,99869.77
2017-12-23T11:32:40.387Z,99872.11
2017-12-23T11:35:07.962Z,99873.50
2017-12-23T11:37:35.511Z,99863.55
2017-12-23T11:40:03.070Z,99857.88
2017-12-23T11:42:30.619Z,99855.38
2017-12-23T11:44:58.155Z,99853.70
2017-12-23T11:47:25.672Z,99858.91
2017-12-23T11:49:53.213Z,99853.71
2017-12-23T11:52:20.733Z,99852.00
2017-12-23T11:54:48.314Z,99848.25
2017-12-23T11:57:15.838Z,99843.92
2017-12-23T11:59:43.368Z,99848.74
2017-12-23T12:02:10.928Z,99844.80
2017-12-23T12:04:38.467Z,99843.95
2017-12-23T12:07:05.992Z,99846.84
2017-12-23T12:09:33.526Z,99851.45
2017-12-23T12:12:01.079Z,99850.88
2017-12-23T12:14:28.696Z,99846.67
2017-12-23T12:16:56.258Z,99846.45
2017-12-23T12:19:23.807Z,99848.37
2017-12-23T12:21:51.342Z,99847.59
2017-12-23T12:24:18.891Z,99839.50
2017-12-23T12:26:46.414Z,99836.67
2017-12-23T12:29:13.998Z,99832.63
2017-12-23T12:31:41.750Z,99836.65
2017-12-23T12:34:09.279Z,99836.09
2017-12-23T12:36:36.813Z,99831.98
2017-12-23T12:39:04.343Z,99827.53
2017-12-23T12:41:31.964Z,99818.91
2017-12-23T12:43:59.487Z,99820.89
2017-12-23T12:46:27.038Z,99820.52
2017-12-23T12:48:54.573Z,99823.52
2017-12-23T12:51:22.148Z,99817.01
2017-12-23T12:53:49.664Z,99811.02
2017-12-23T12:56:17.178Z,99808.42
2017-12-23T12:58:44.734Z,99813.81
2017-12-23T13:01:12.288Z,99810.98
2017-12-23T13:03:39.836Z,99810.89
2017-12-23T13:06:07.401Z,99807.12
2017-12-23T13:08:34.948Z,99806.62
2017-12-23T13:11:02.555Z,99800.67
2017-12-23T13:13:30.111Z,99802.84
2017-12-23T13:15:57.632Z,99797.95
2017-12-23T13:18:25.188Z,99798.78
2017-12-23T13:20:52.738Z,99800.89
2017-12-23T13:23:20.268Z,99792.45
2017-12-23T13:25:47.973Z,99797.07
2017-12-23T13:28:15.626Z,99792.16
2017-12-23T13:30:43.241Z,99791.44
2017-12-23T13:33:10.769Z,99793.09
2017-12-23T13:35:38.302Z,99790.11
2017-12-23T13:38:05.831Z,99787.27
2017-12-23T13:40:33.396Z,99792.36
2017-12-23T13:43:00.939Z,99788.09
2017-12-23T13:45:28.468Z,99788.00
2017-12-23T13:47:56.011Z,99778.25
2017-12-23T13:50:23.609Z,99786.50
2017-12-23T13:52:51.107Z,99789.92
2017-12-23T13:55:19.152Z,99786.41
2017-12-23T13:57:46.693Z,99788.32
2017-12-23T14:00:14.224Z,99789.11
2017-12-23T14:02:41.748Z,99795.70
2017-12-23T14:05:09.306Z,99796.31
2017-12-23T14:07:36.848Z,99797.80
2017-12-23T14:10:04.393Z,99795.59
2017-12-23T14:12:31.917Z,99795.03
2017-12-23T14:14:59.454Z,99800.27
2017-12-23T14:17:26.978Z,99806.28
2017-12-23T14:19:54.509Z,99794.00
2017-12-23T14:22:22.043Z,99795.91
2017-12-23T14:24:49.591Z,99795.06
2017-12-23T14:27:17.157Z,99796.00
2017-12-23T14:29:44.799Z,99795.08
2017-12-23T14:32:12.386Z,99791.77
2017-12-23T14:34:39.930Z,99787.45
2017-12-23T14:37:07.470Z,99795.19
2017-12-23T14:39:35.021Z,99787.19
2017-12-23T14:42:02.568Z,99793.01
2017-12-23T14:44:30.102Z,99788.44
2017-12-23T14:46:57.652Z,99795.70
2017-12-23T14:49:25.201Z,99792.95
2017-12-23T14:51:52.741Z,99790.38
2017-12-23T14:54:20.876Z,99785.17
2017-12-23T14:56:48.436Z,99780.86
2017-12-23T14:59:15.966Z,99782.52
2017-12-23T15:01:43.497Z,99781.86
2017-12-23T15:04:11.053Z,99776.74
2017-12-23T15:06:38.612Z,99787.16
2017-12-23T15:09:06.137Z,99786.42
2017-12-23T15:11:33.696Z,99787.94
2017-12-23T15:14:01.227Z,99781.34
2017-12-23T15:16:28.792Z,99788.34
2017-12-23T15:18:56.317Z,99790.31
2017-12-23T15:21:23.838Z,99786.42
2017-12-23T15:23:51.364Z,99784.75
2017-12-23T15:26:18.881Z,99783.20
2017-12-23T15:28:46.424Z,99778.02
2017-12-23T15:31:13.953Z,99780.11
2017-12-23T15:33:41.477Z,99778.91
2017-12-23T15:36:09.058Z,99784.86
2017-12-23T15:38:36.625Z,99782.50
2017-12-23T15:41:04.171Z,99785.83
2017-12-23T15:43:31.702Z,99788.00
2017-12-23T15:45:59.241Z,99784.72
2017-12-23T15:48:26.794Z,99783.52
2017-12-23T15:50:54.316Z,99788.13
2017-12-23T15:53:21.881Z,99791.72
2017-12-23T15:55:49.428Z,99789.05
2017-12-23T15:58:16.956Z,99788.88
2017-12-23T16:00:44.493Z,99788.28
2017-12-23T16:03:12.088Z,99785.14
2017-12-23T16:05:39.622Z,99783.00
2017-12-23T16:08:07.195Z,99784.98
2017-12-23T16:10:34.808Z,99789.23
2017-12-23T16:13:02.390Z,99774.34
2017-12-23T16:15:29.930Z,99777.56
2017-12-23T16:17:57.463Z,99774.84
2017-12-23T16:20:24.983Z,99775.78
2017-12-23T16:22:52.510Z,99782.53
2017-12-23T16:25:20.058Z,99788.09
2017-12-23T16:27:47.587Z,99784.38
2017-12-23T16:30:15.117Z,99786.97
2017-12-23T16:32:42.662Z,99786.63
2017-12-23T16:35:10.240Z,99793.15
2017-12-23T16:37:37.783Z,99789.88
2017-12-23T16:40:05.328Z,99786.14
2017-12-23T16:42:32.856Z,99793.51
2017-12-23T16:45:00.388Z,99784.16
2017-12-23T16:47:27.926Z,99785.42
2017-12-23T16:49:55.489Z,99776.66
2017-12-23T16:52:23.030Z,99774.44
2017-12-23T16:54:50.554Z,99773.66
2017-12-23T16:57:18.077Z,99772.02
2017-12-23T16:59:45.608Z,99774.52
2017-12-23T17:02:13.157Z,99771.55
2017-12-23T17:04:40.702Z,99775.67
2017-12-23T17:07:08.243Z,99776.69
2017-12-23T17:09:35.802Z,99781.69
2017-12-23T17:12:03.348Z,99776.03
2017-12-23T17:14:30.881Z,99782.07
2017-12-23T17:16:58.422Z,99778.91
2017-12-23T17:19:25.968Z,99781.60
2017-12-23T17:21:53.511Z,99775.70
2017-12-23T17:24:21.063Z,99784.02
2017-12-23T17:26:48.602Z,99779.89
2017-12-23T17:29:28.147Z,99773.66
2017-12-23T17:31:55.923Z,99781.63
2017-12-23T17:34:23.443Z,99775.53
2017-12-23T17:36:50.984Z,99775.42
2017-12-23T17:39:18.513Z,99777.05
2017-12-23T17:41:46.044Z,99770.83
2017-12-23T17:44:13.630Z,99774.13
2017-12-23T17:46:41.268Z,99772.69
2017-12-23T17:49:08.836Z,99764.87
2017-12-23T17:51:36.348Z,99761.56
2017-12-23T17:54:03.892Z,99765.41
2017-12-23T17:56:31.465Z,99759.31
2017-12-23T17:58:59.050Z,99758.81
2017-12-23T18:01:26.688Z,99757.97
2017-12-23T18:03:54.206Z,99758.70
2017-12-23T18:06:21.733Z,99756.13
2017-12-23T18:08:49.271Z,99757.14
2017-12-23T18:11:16.834Z,99771.19
2017-12-23T18:13:44.392Z,99768.44
2017-12-23T18:16:11.919Z,99763.73
2017-12-23T18:18:39.457Z,99769.28
2017-12-23T18:21:07.003Z,99767.55
2017-12-23T18:23:34.577Z,99763.91
2017-12-23T18:26:02.118Z,99766.45
2017-12-23T18:28:29.668Z,99765.38
2017-12-23T18:30:57.193Z,99762.50
2017-12-23T18:33:24.779Z,99765.88
2017-12-23T18:35:52.312Z,99763.88
2017-12-23T18:38:19.872Z,99759.51
2017-12-23T18:40:47.398Z,99756.05
2017-12-23T18:43:14.920Z,99757.42
2017-12-23T18:45:42.551Z,99758.69
2017-12-23T18:48:10.077Z,99758.55
2017-12-23T18:50:37.624Z,99753.88
2017-12-23T18:53:05.308Z,99754.18
2017-12-23T18:55:32.859Z,99761.66
2017-12-23T18:58:00.514Z,99759.64
2017-12-23T19:00:28.084Z,99755.66
2017-12-23T19:02:55.631Z,99751.81
2017-12-23T19:05:23.178Z,99760.39
2017-12-23T19:07:50.742Z,99757.69
2017-12-23T19:10:18.348Z,99760.58
2017-12-23T19:12:45.881Z,99756.29
2017-12-23T19:15:13.437Z,99757.55
2017-12-23T19:17:40.961Z,99756.15
2017-12-23T19:20:08.488Z,99752.58
2017-12-23T19:22:36.068Z,99746.12
2017-12-23T19:25:03.601Z,99754.42
2017-12-23T19:27:31.162Z,99748.46
2017-12-23T19:29:58.702Z,99751.45
2017-12-23T19:32:26.358Z,99748.98
2017-12-23T19:34:53.893Z,99753.02
2017-12-23T19:37:21.553Z,99757.41
2017-12-23T19:39:49.101Z,99756.34
2017-12-23T19:42:16.646Z,99753.16
2017-12-23T19:44:44.188Z,99750.39
2017-12-23T19:47:11.752Z,99752.80
2017-12-23T19:49:39.268Z,99755.73
2017-12-23T19:52:06.837Z,99760.30
2017-12-23T19:54:34.398Z,99763.78
2017-12-23T19:57:02.005Z,99756.17
2017-12-23T19:59:29.551Z,99757.02
2017-12-23T20:01:57.084Z,99750.55
2017-12-23T20:04:24.688Z,99755.66
2017-12-23T20:06:52.505Z,99751.56
2017-12-23T20:09:20.158Z,99755.71
2017-12-23T20:11:47.728Z,99754.16
2017-12-23T20:14:15.417Z,99752.03
2017-12-23T20:16:42.944Z,99754.61
2017-12-23T20:19:10.488Z,99748.34
2017-12-23T20:21:38.032Z,99744.45
2017-12-23T20:24:05.583Z,99748.13
2017-12-23T20:26:33.114Z,99750.79
2017-12-23T20:29:00.699Z,99745.73
2017-12-23T20:31:28.263Z,99735.50
2017-12-23T20:33:55.788Z,99745.05
2017-12-23T20:36:23.387Z,99739.55
2017-12-23T20:38:50.917Z,99736.03
2017-12-23T20:41:18.519Z,99734.28
2017-12-23T20:43:46.065Z,99738.34
2017-12-23T20:46:13.674Z,99736.50
2017-12-23T20:48:41.223Z,99738.50
2017-12-23T20:51:08.770Z,99735.54
2017-12-23T20:53:36.357Z,99731.83
2017-12-23T20:56:03.935Z,99734.22
2017-12-23T20:58:31.504Z,99731.14
2017-12-23T21:00:59.038Z,99733.12
2017-12-23T21:03:26.633Z,99730.48
2017-12-23T21:05:54.215Z,99729.89
2017-12-23T21:08:21.807Z,99733.87
2017-12-23T21:10:49.512Z,99736.42
2017-12-23T21:13:17.068Z,99734.64
2017-12-23T21:15:44.664Z,99739.83
2017-12-23T21:18:12.243Z,99729.62
2017-12-23T21:20:40.007Z,99732.58
2017-12-23T21:23:07.679Z,99734.91
2017-12-23T21:25:35.384Z,99731.98
2017-12-23T21:28:02.938Z,99742.84
2017-12-23T21:30:30.589Z,99748.65
2017-12-23T21:32:58.164Z,99741.66
2017-12-23T21:35:25.705Z,99751.94
2017-12-23T21:37:53.347Z,99749.30
2017-12-23T21:40:20.938Z,99745.78
2017-12-23T21:42:48.477Z,99736.52
2017-12-23T21:45:16.033Z,99736.46
2017-12-23T21:47:43.628Z,99729.41
2017-12-23T21:50:11.222Z,99739.47
2017-12-23T21:52:38.828Z,99734.52
2017-12-23T21:55:06.524Z,99733.19
2017-12-23T21:57:34.093Z,99736.52
2017-12-23T22:00:01.751Z,99738.52
2017-12-23T22:02:29.359Z,99736.13
2017-12-23T22:04:56.885Z,99736.94
2017-12-23T22:07:24.424Z,99739.83
2017-12-23T22:09:52.027Z,99736.53
2017-12-23T22:12:19.571Z,99733.81
2017-12-23T22:14:47.151Z,99743.68
2017-12-23T22:17:14.709Z,99739.75
2017-12-23T22:19:42.266Z,99735.80
2017-12-23T22:22:09.829Z,99741.16
2017-12-23T22:24:37.393Z,99728.20
2017-12-23T22:27:04.918Z,99732.73
2017-12-23T22:29:32.474Z,99725.37
2017-12-23T22:31:59.992Z,99738.48
2017-12-23T22:34:27.593Z,99737.66
2017-12-23T22:36:55.138Z,99729.89
2017-12-23T22:39:22.707Z,99738.73
2017-12-23T22:41:50.253Z,99735.80
2017-12-23T22:44:17.817Z,99736.20
2017-12-23T22:46:45.366Z,99736.16
2017-12-23T22:49:12.939Z,99738.84
2017-12-23T22:51:40.479Z,99727.56
2017-12-23T22:54:08.024Z,99723.69
2017-12-23T22:56:35.558Z,99721.91
2017-12-23T22:59:03.095Z,99721.56
2017-12-23T23:01:30.666Z,99720.86
2017-12-23T23:03:58.209Z,99725.14
2017-12-23T23:06:25.740Z,99729.41
2017-12-23T23:08:53.295Z,99726.34
2017-12-23T23:11:20.893Z,99715.55
2017-12-23T23:13:48.420Z,99728.78
2017-12-23T23:16:15.994Z,99713.38
2017-12-23T23:18:43.555Z,99713.70
2017-12-23T23:21:11.095Z,99709.10
2017-12-23T23:23:38.649Z,99707.42
2017-12-23T23:26:06.184Z,99705.11
2017-12-23T23:28:33.715Z,99712.88
2017-12-23T23:31:01.388Z,99705.80
2017-12-23T23:33:28.956Z,99705.86
2017-12-23T23:35:56.491Z,99705.61
2017-12-23T23:38:24.028Z,99704.45
2017-12-23T23:40:51.559Z,99701.91
2017-12-23T23:43:19.062Z,99705.38
2017-12-23T23:45:46.604Z,99708.59
2017-12-23T23:48:14.129Z,99707.61
2017-12-23T23:50:41.650Z,99701.42
2017-12-23T23:53:09.175Z,99702.22
2017-12-23T23:55:36.688Z,99693.86
2017-12-23T23:58:04.213Z,99698.86
